Time;durP1;ratioP1;P1;durP2;ratioP2;P2;SDS_P1;SDS_P2;PMS_P1;PMS_P2;Temp;Humidity;BMP_temperature;BMP_pressure;BME280_temperature;BME280_humidity;BME280_pressure;Samples;Min_cycle;Max_cycle;Signal;HPM_P1;HPM_P2
2022/06/04 00:00:49;;;;;;;7.38;4.30;;;18.10;99.90;;;;;;4990711;28;20395;-72
2022/06/04 00:03:15;;;;;;;5.47;4.40;;;18.10;99.90;;;;;;4976595;28;20030;-72
2022/06/04 00:05:43;;;;;;;7.30;5.10;;;18.10;99.90;;;;;;4995294;23;20042;-71
2022/06/04 00:08:10;;;;;;;6.38;5.18;;;18.10;99.90;;;;;;4981950;28;20042;-71
2022/06/04 00:16:11;;;;;;;5.63;4.15;;;18.00;99.90;;;;;;4987260;28;20430;-71
2022/06/04 00:18:39;;;;;;;5.78;4.63;;;18.00;99.90;;;;;;4971042;28;20030;-71
2022/06/04 00:21:05;;;;;;;5.60;4.60;;;18.00;99.90;;;;;;4983494;28;20830;-71
2022/06/04 00:23:31;;;;;;;5.78;4.85;;;18.00;99.90;;;;;;4989281;28;20038;-71
2022/06/04 00:25:59;;;;;;;6.03;4.72;;;18.00;99.90;;;;;;4990976;28;20041;-71
2022/06/04 00:28:26;;;;;;;6.13;4.35;;;18.00;99.90;;;;;;4986376;28;20513;-70
2022/06/04 00:30:53;;;;;;;5.95;4.70;;;18.00;99.90;;;;;;4985557;28;20050;-71
2022/06/04 00:33:19;;;;;;;6.50;4.63;;;18.00;99.90;;;;;;4970914;28;20034;-71
2022/06/04 00:35:48;;;;;;;6.22;5.20;;;18.00;99.90;;;;;;4983387;28;20030;-71
2022/06/04 00:38:17;;;;;;;7.18;4.68;;;17.90;99.90;;;;;;4982345;28;20030;-70
2022/06/04 00:40:48;;;;;;;5.38;4.18;;;17.90;99.90;;;;;;4986801;28;20521;-70
2022/06/04 00:43:14;;;;;;;6.95;5.22;;;17.80;99.90;;;;;;4987426;28;20030;-70
2022/06/04 00:46:07;;;;;;;7.82;4.80;;;17.80;99.90;;;;;;4986635;28;20045;-70
2022/06/04 00:48:34;;;;;;;6.43;4.68;;;17.80;99.90;;;;;;4968802;28;20421;-71
2022/06/04 00:51:01;;;;;;;5.95;5.10;;;17.80;99.90;;;;;;4981620;28;20610;-71
2022/06/04 00:53:26;;;;;;;6.25;4.90;;;17.80;99.90;;;;;;4984220;28;20081;-71
2022/06/04 00:56:04;;;;;;;5.32;4.38;;;17.80;99.90;;;;;;4987243;28;20062;-71
2022/06/04 00:58:39;;;;;;;6.03;4.93;;;17.70;99.90;;;;;;4984821;28;20030;-72
2022/06/04 01:01:28;;;;;;;5.68;4.60;;;17.70;99.90;;;;;;4984806;28;20498;-71
2022/06/04 01:04:47;;;;;;;5.63;4.57;;;17.70;99.90;;;;;;4969025;28;20038;-71
2022/06/04 01:07:20;;;;;;;7.55;4.75;;;17.70;99.90;;;;;;4982520;28;20038;-72
2022/06/04 01:10:08;;;;;;;5.18;4.63;;;17.70;99.90;;;;;;4966733;28;20523;-72
2022/06/04 01:12:57;;;;;;;6.60;5.10;;;17.60;99.90;;;;;;4938587;28;20037;-72
2022/06/04 01:15:50;;;;;;;6.05;4.63;;;17.60;99.90;;;;;;4986500;28;20036;-71
2022/06/04 01:18:41;;;;;;;5.55;4.28;;;17.60;99.90;;;;;;4985033;28;20038;-71
2022/06/04 01:21:26;;;;;;;5.45;4.75;;;17.60;99.90;;;;;;4986779;28;20042;-72
2022/06/04 01:23:58;;;;;;;5.18;4.68;;;17.60;99.90;;;;;;4984000;28;20034;-71
2022/06/04 01:26:38;;;;;;;6.15;5.28;;;17.60;99.90;;;;;;4989009;28;20124;-71
2022/06/04 01:29:09;;;;;;;5.35;4.15;;;17.50;99.90;;;;;;4982570;28;20057;-71
2022/06/04 01:31:46;;;;;;;6.50;4.80;;;17.50;99.90;;;;;;4965422;28;20022;-71
2022/06/04 01:34:15;;;;;;;5.47;4.38;;;17.50;99.90;;;;;;4983229;28;20026;-72
2022/06/04 01:36:53;;;;;;;6.97;4.72;;;17.50;99.90;;;;;;4965019;28;20122;-71
2022/06/04 01:41:03;;;;;;;4.93;4.30;;;17.50;99.90;;;;;;4983762;28;20062;-71
2022/06/04 01:42:14;;;;;;;5.07;4.57;;;17.50;99.90;;;;;;4979530;28;20038;-71
2022/06/04 01:44:41;;;;;;;5.50;4.38;;;17.50;99.90;;;;;;4985672;28;20510;-71
2022/06/04 01:47:06;;;;;;;8.02;4.65;;;17.50;99.90;;;;;;4983370;28;20026;-71
2022/06/04 01:49:45;;;;;;;5.85;4.22;;;17.50;99.90;;;;;;4981454;28;21253;-71
2022/06/04 01:52:19;;;;;;;6.28;4.68;;;17.40;99.90;;;;;;4988356;28;20038;-70
2022/06/04 01:54:50;;;;;;;5.20;4.50;;;17.40;99.90;;;;;;4986989;28;20038;-70
2022/06/04 01:57:24;;;;;;;6.90;4.78;;;17.30;99.90;;;;;;4988379;28;20034;-71
2022/06/04 02:00:03;;;;;;;5.13;4.03;;;17.30;99.90;;;;;;4987584;28;20034;-72
2022/06/04 02:02:41;;;;;;;6.50;4.55;;;17.30;99.90;;;;;;4985440;28;20025;-71
2022/06/04 02:05:15;;;;;;;5.07;4.10;;;17.30;99.90;;;;;;4985342;28;20030;-72
2022/06/04 02:07:46;;;;;;;5.63;4.50;;;17.30;99.90;;;;;;4986341;28;20034;-72
2022/06/04 02:10:29;;;;;;;5.97;4.05;;;17.20;99.90;;;;;;4987976;28;20026;-72
2022/06/04 02:12:59;;;;;;;5.17;3.77;;;17.20;99.90;;;;;;4987682;28;20081;-72
2022/06/04 02:15:33;;;;;;;4.20;3.42;;;17.20;99.90;;;;;;4988829;28;20549;-70
2022/06/04 02:18:01;;;;;;;4.70;4.15;;;17.20;99.90;;;;;;4988887;28;20018;-73
2022/06/04 02:20:27;;;;;;;4.18;3.78;;;17.20;99.90;;;;;;4981822;28;20046;-72
2022/06/04 02:22:54;;;;;;;5.43;3.63;;;17.20;99.90;;;;;;4977707;28;20038;-72
2022/06/04 02:25:21;;;;;;;3.97;3.58;;;17.20;99.90;;;;;;4985565;28;20026;-72
2022/06/04 02:27:49;;;;;;;4.55;3.63;;;17.20;99.90;;;;;;4988042;28;20082;-72
2022/06/04 02:30:15;;;;;;;4.43;4.03;;;17.20;99.90;;;;;;4967163;28;20022;-71
2022/06/04 02:33:03;;;;;;;3.58;3.13;;;17.20;99.90;;;;;;4985780;28;20022;-72
2022/06/04 02:35:52;;;;;;;3.65;3.25;;;17.20;99.90;;;;;;4982509;28;20027;-71
2022/06/04 02:38:27;;;;;;;5.70;4.45;;;17.20;99.90;;;;;;4975520;28;20045;-70
2022/06/04 02:41:14;;;;;;;4.30;3.90;;;17.10;99.90;;;;;;4987545;28;20026;-70
2022/06/04 02:44:04;;;;;;;5.47;3.42;;;17.20;99.90;;;;;;4984173;28;20109;-71
2022/06/04 02:46:38;;;;;;;5.43;3.65;;;17.10;99.90;;;;;;4986032;28;20096;-71
2022/06/04 02:49:23;;;;;;;4.13;3.42;;;17.10;99.90;;;;;;4968745;28;20084;-71
2022/06/04 02:51:55;;;;;;;4.80;3.88;;;17.00;99.90;;;;;;4983267;28;20022;-73
2022/06/04 02:54:34;;;;;;;3.80;3.30;;;17.10;99.90;;;;;;4984661;28;21443;-72
2022/06/04 02:57:03;;;;;;;4.50;2.95;;;17.10;99.90;;;;;;4976721;28;20554;-72
2022/06/04 02:59:33;;;;;;;4.45;3.00;;;17.10;99.90;;;;;;4987375;28;20030;-72
2022/06/04 03:02:01;;;;;;;5.45;3.35;;;17.10;99.90;;;;;;4986254;28;20030;-72
2022/06/04 03:04:27;;;;;;;4.10;3.58;;;17.00;99.90;;;;;;4968182;28;20118;-72
2022/06/04 03:06:53;;;;;;;5.30;4.25;;;17.00;99.90;;;;;;4983580;28;20567;-72
2022/06/04 03:09:20;;;;;;;5.05;3.72;;;17.00;99.90;;;;;;4965800;28;20395;-72
2022/06/04 03:11:49;;;;;;;6.00;3.60;;;17.00;99.90;;;;;;4981699;28;20459;-70
2022/06/04 03:14:17;;;;;;;3.92;2.92;;;16.90;99.90;;;;;;4984467;28;20031;-70
2022/06/04 03:16:47;;;;;;;4.28;3.53;;;16.90;99.90;;;;;;4984944;28;20038;-71
2022/06/04 03:19:13;;;;;;;3.97;3.40;;;17.00;99.90;;;;;;4981870;28;20759;-71
2022/06/04 03:21:40;;;;;;;6.50;3.80;;;16.90;99.90;;;;;;4967369;28;20055;-71
2022/06/04 03:24:08;;;;;;;5.72;3.53;;;16.90;99.90;;;;;;4983065;28;20515;-71
2022/06/04 03:26:35;;;;;;;4.47;3.72;;;16.90;99.90;;;;;;4985767;28;20089;-71
2022/06/04 03:29:00;;;;;;;4.53;3.05;;;16.90;99.90;;;;;;4985173;28;20396;-72
2022/06/04 03:31:28;;;;;;;3.88;2.97;;;16.90;99.90;;;;;;4985779;28;20037;-71
2022/06/04 03:33:55;;;;;;;4.03;3.28;;;17.00;99.90;;;;;;4984859;28;20027;-71
2022/06/04 03:36:22;;;;;;;4.63;2.92;;;17.00;99.90;;;;;;4965460;28;20121;-70
2022/06/04 03:38:48;;;;;;;3.55;2.70;;;17.10;99.90;;;;;;4987236;28;20034;-71
2022/06/04 03:41:14;;;;;;;3.75;3.00;;;17.10;99.90;;;;;;4982975;28;20109;-72
2022/06/04 03:43:41;;;;;;;3.42;2.45;;;17.20;99.90;;;;;;4980846;28;20117;-72
2022/06/04 03:46:07;;;;;;;3.65;2.80;;;17.20;99.90;;;;;;4987575;28;20038;-72
2022/06/04 03:48:34;;;;;;;3.00;2.55;;;17.30;99.90;;;;;;4969162;28;20395;-72
2022/06/04 03:51:01;;;;;;;4.10;2.78;;;17.30;99.90;;;;;;4966482;28;20038;-72
2022/06/04 03:53:26;;;;;;;5.70;3.20;;;17.40;99.90;;;;;;4988854;28;20030;-71
2022/06/04 03:55:52;;;;;;;3.00;2.70;;;17.50;99.90;;;;;;4962566;28;20023;-72
2022/06/04 03:58:18;;;;;;;3.95;2.95;;;17.50;99.90;;;;;;4982832;28;20038;-72
2022/06/04 04:00:45;;;;;;;3.58;2.83;;;17.50;99.90;;;;;;4983090;28;20026;-70
2022/06/04 04:03:17;;;;;;;5.70;4.30;;;17.60;99.90;;;;;;4978844;28;20034;-71
2022/06/04 04:05:48;;;;;;;8.55;5.35;;;17.60;99.90;;;;;;4977935;28;20037;-70
2022/06/04 04:08:16;;;;;;;7.03;4.75;;;17.60;99.90;;;;;;4979609;28;20026;-71
2022/06/04 04:10:43;;;;;;;8.10;5.65;;;17.60;99.90;;;;;;4976594;28;20019;-72
2022/06/04 04:13:09;;;;;;;8.25;5.78;;;17.60;99.90;;;;;;4969126;28;20026;-72
2022/06/04 04:15:36;;;;;;;8.05;4.72;;;17.60;99.90;;;;;;4981606;28;20510;-71
2022/06/04 04:18:02;;;;;;;5.40;4.75;;;17.60;99.90;;;;;;4977860;28;20097;-71
2022/06/04 04:20:30;;;;;;;4.53;3.83;;;17.70;99.90;;;;;;4980096;28;20439;-71
2022/06/04 04:22:57;;;;;;;4.68;3.17;;;17.80;99.90;;;;;;4986820;28;20034;-71
2022/06/04 04:25:25;;;;;;;4.97;3.05;;;17.80;99.90;;;;;;4986802;28;20026;-71
2022/06/04 04:27:52;;;;;;;5.35;3.28;;;18.00;99.90;;;;;;4984527;28;20018;-70
2022/06/04 04:30:21;;;;;;;4.90;2.92;;;18.00;99.90;;;;;;4978852;28;20151;-71
2022/06/04 04:32:48;;;;;;;4.55;2.92;;;18.10;99.90;;;;;;4985877;28;20048;-71
2022/06/04 04:35:23;;;;;;;6.95;3.03;;;18.10;99.90;;;;;;4966671;28;20102;-71
2022/06/04 04:37:48;;;;;;;6.35;3.30;;;18.10;99.90;;;;;;4982893;28;20030;-72
2022/06/04 04:40:16;;;;;;;5.55;3.22;;;18.10;99.90;;;;;;4986444;28;20364;-72
2022/06/04 04:42:42;;;;;;;2.72;2.50;;;18.10;99.90;;;;;;4986829;28;20052;-71
2022/06/04 04:45:09;;;;;;;3.78;3.00;;;18.20;99.90;;;;;;4991725;28;20546;-70
2022/06/04 04:47:40;;;;;;;7.47;3.20;;;18.20;99.90;;;;;;4970779;28;20046;-71
2022/06/04 04:50:10;;;;;;;5.45;3.00;;;18.20;99.90;;;;;;4968705;28;20034;-71
2022/06/04 04:52:36;;;;;;;4.55;2.75;;;18.30;99.90;;;;;;4981824;28;20049;-71
2022/06/04 04:55:02;;;;;;;4.53;2.95;;;18.30;99.90;;;;;;4984988;28;20443;-71
2022/06/04 04:57:28;;;;;;;5.43;2.88;;;18.40;99.90;;;;;;4985248;28;20030;-71
2022/06/04 04:59:53;;;;;;;5.07;3.70;;;18.40;99.90;;;;;;4986362;28;20658;-72
2022/06/04 05:02:20;;;;;;;5.22;3.67;;;18.40;99.90;;;;;;4980828;28;20054;-71
2022/06/04 05:04:45;;;;;;;4.85;3.78;;;18.50;99.90;;;;;;4986053;28;20030;-72
2022/06/04 05:07:12;;;;;;;6.40;4.03;;;18.50;99.90;;;;;;4970046;28;20026;-71
2022/06/04 05:09:39;;;;;;;6.18;4.65;;;18.40;99.90;;;;;;4980880;28;20018;-71
2022/06/04 05:12:09;;;;;;;9.20;6.53;;;18.40;99.90;;;;;;4984562;28;20038;-71
2022/06/04 05:14:36;;;;;;;8.43;7.20;;;18.50;99.90;;;;;;4971561;28;20037;-72
2022/06/04 05:17:03;;;;;;;10.40;6.88;;;18.50;99.90;;;;;;4990935;28;20085;-72
2022/06/04 05:19:29;;;;;;;9.55;5.78;;;18.50;99.90;;;;;;4981401;28;20029;-72
2022/06/04 05:21:55;;;;;;;7.50;5.63;;;18.50;99.90;;;;;;4966759;28;20034;-71
2022/06/04 05:24:33;;;;;;;14.27;5.97;;;18.40;99.90;;;;;;4965766;28;20030;-72
2022/06/04 05:26:59;;;;;;;7.07;5.15;;;18.50;99.90;;;;;;4985554;28;20030;-72
2022/06/04 05:29:26;;;;;;;7.25;5.00;;;18.40;99.90;;;;;;4980866;28;20111;-72
2022/06/04 05:31:53;;;;;;;8.43;5.65;;;18.40;99.90;;;;;;4980434;28;20019;-72
2022/06/04 05:34:20;;;;;;;7.85;5.53;;;18.40;99.90;;;;;;4967916;28;20038;-72
2022/06/04 05:36:46;;;;;;;5.45;4.88;;;18.40;99.90;;;;;;4985295;28;20507;-72
2022/06/04 05:39:14;;;;;;;5.57;4.97;;;18.40;99.90;;;;;;4977995;28;20038;-72
2022/06/04 05:41:40;;;;;;;7.20;5.05;;;18.40;99.90;;;;;;4984452;28;20031;-72
2022/06/04 05:44:06;;;;;;;6.72;5.25;;;18.50;99.90;;;;;;4984282;28;20046;-72
2022/06/04 05:46:32;;;;;;;8.20;5.15;;;18.40;99.90;;;;;;4989283;28;20050;-71
2022/06/04 05:48:59;;;;;;;6.15;4.70;;;18.40;99.90;;;;;;4985486;28;20562;-72
2022/06/04 05:51:28;;;;;;;8.48;5.25;;;18.50;99.90;;;;;;4967662;28;20503;-72
2022/06/04 05:53:54;;;;;;;5.60;4.45;;;18.50;99.90;;;;;;4986775;28;20118;-72
2022/06/04 05:56:25;;;;;;;10.30;4.60;;;18.50;99.90;;;;;;4986357;28;20023;-71
2022/06/04 05:58:52;;;;;;;9.65;5.00;;;18.40;99.90;;;;;;4983414;28;20026;-72
2022/06/04 06:01:21;;;;;;;7.13;5.05;;;18.40;99.90;;;;;;4984094;28;20136;-71
2022/06/04 06:03:47;;;;;;;7.03;4.57;;;18.40;99.90;;;;;;4982616;28;20085;-72
2022/06/04 06:06:16;;;;;;;7.07;4.90;;;18.40;99.90;;;;;;4985274;28;20117;-71
2022/06/04 06:08:42;;;;;;;8.90;4.10;;;18.40;99.90;;;;;;4990054;28;20018;-71
2022/06/04 06:11:13;;;;;;;7.72;4.65;;;18.40;99.90;;;;;;4986556;28;20027;-71
2022/06/04 06:13:41;;;;;;;6.03;4.07;;;18.50;99.90;;;;;;4983290;28;20030;-69
2022/06/04 06:16:15;;;;;;;8.18;4.40;;;18.60;99.90;;;;;;4987617;28;20066;-71
2022/06/04 06:18:41;;;;;;;5.85;4.05;;;18.70;99.90;;;;;;4987334;28;20041;-71
2022/06/04 06:21:13;;;;;;;6.30;3.67;;;18.70;99.90;;;;;;4984544;28;20454;-73
2022/06/04 06:23:40;;;;;;;8.40;3.53;;;18.70;99.90;;;;;;4989646;28;20033;-72
2022/06/04 06:26:08;;;;;;;4.97;3.35;;;18.80;99.90;;;;;;4989602;28;20042;-71
2022/06/04 06:28:35;;;;;;;5.25;3.58;;;18.80;99.90;;;;;;4985763;28;20187;-71
2022/06/04 06:31:02;;;;;;;7.65;3.53;;;18.80;99.90;;;;;;4987795;28;20036;-72
2022/06/04 06:33:28;;;;;;;6.38;3.53;;;18.80;99.90;;;;;;4969414;28;20405;-71
2022/06/04 06:36:06;;;;;;;5.72;3.80;;;18.80;99.90;;;;;;4987604;28;20125;-72
2022/06/04 06:38:33;;;;;;;6.03;3.95;;;18.70;99.90;;;;;;4984328;28;20383;-70
2022/06/04 06:40:59;;;;;;;6.25;4.40;;;18.60;99.90;;;;;;4982336;28;20037;-71
2022/06/04 06:43:37;;;;;;;8.82;4.32;;;18.50;99.90;;;;;;4989034;28;20076;-70
2022/06/04 06:46:10;;;;;;;4.68;3.55;;;18.40;99.90;;;;;;4980370;28;20026;-71
2022/06/04 06:48:38;;;;;;;6.03;3.55;;;18.40;99.90;;;;;;4987226;28;20566;-70
2022/06/04 06:51:24;;;;;;;5.90;3.33;;;18.30;99.90;;;;;;4984497;28;20057;-71
2022/06/04 06:53:50;;;;;;;8.80;3.83;;;18.30;99.90;;;;;;4967119;28;20054;-71
2022/06/04 06:56:26;;;;;;;4.32;3.17;;;18.30;99.90;;;;;;4969710;28;20056;-70
2022/06/04 06:58:53;;;;;;;4.35;2.78;;;18.40;99.90;;;;;;4983299;28;20026;-70
2022/06/04 07:01:21;;;;;;;7.57;3.35;;;18.50;99.90;;;;;;4983088;28;20375;-71
2022/06/04 07:03:48;;;;;;;6.88;3.15;;;18.50;99.90;;;;;;4988145;28;20069;-71
2022/06/04 07:06:14;;;;;;;4.32;2.63;;;18.60;99.90;;;;;;4969964;28;20401;-70
2022/06/04 07:08:42;;;;;;;4.20;3.00;;;18.60;99.90;;;;;;4924053;28;20452;-70
2022/06/04 07:11:08;;;;;;;6.72;3.42;;;18.70;99.90;;;;;;4969420;28;20041;-70
2022/06/04 07:13:34;;;;;;;10.27;3.40;;;18.70;99.90;;;;;;4986412;28;20038;-70
2022/06/04 07:15:59;;;;;;;6.35;4.18;;;18.70;99.90;;;;;;4985090;28;20031;-71
2022/06/04 07:18:25;;;;;;;5.25;4.00;;;18.80;99.90;;;;;;4983053;28;20455;-71
2022/06/04 07:20:51;;;;;;;10.25;4.63;;;18.80;99.90;;;;;;4984599;28;20643;-71
2022/06/04 07:23:18;;;;;;;5.88;4.18;;;18.80;99.90;;;;;;4985730;28;20033;-71
2022/06/04 07:25:45;;;;;;;8.40;5.60;;;18.80;99.90;;;;;;4966947;28;20076;-71
2022/06/04 07:28:12;;;;;;;10.30;6.25;;;18.80;99.90;;;;;;4971186;28;20504;-71
2022/06/04 07:30:39;;;;;;;9.27;6.47;;;18.80;99.90;;;;;;4982452;28;20023;-70
2022/06/04 07:33:05;;;;;;;10.38;6.80;;;18.70;99.90;;;;;;4978565;28;20027;-70
2022/06/04 07:35:31;;;;;;;8.55;6.22;;;18.80;99.90;;;;;;4965372;28;20077;-70
2022/06/04 07:37:56;;;;;;;9.20;6.30;;;18.70;99.90;;;;;;4985903;28;20032;-70
2022/06/04 07:40:22;;;;;;;9.73;6.53;;;18.70;99.90;;;;;;4981066;28;20060;-71
2022/06/04 07:42:48;;;;;;;8.27;5.85;;;18.70;99.90;;;;;;4985130;28;20642;-70
2022/06/04 07:45:14;;;;;;;11.10;6.80;;;18.70;99.90;;;;;;4988521;28;20022;-71
2022/06/04 07:47:41;;;;;;;8.82;5.72;;;18.70;99.90;;;;;;4983299;28;20033;-71
2022/06/04 07:50:11;;;;;;;9.80;6.82;;;18.80;99.90;;;;;;4983741;28;20650;-71
2022/06/04 07:52:37;;;;;;;10.30;6.70;;;18.90;99.90;;;;;;4964101;28;20405;-70
2022/06/04 07:55:06;;;;;;;9.45;6.03;;;19.10;99.90;;;;;;4985085;28;20128;-71
2022/06/04 07:57:32;;;;;;;7.15;6.45;;;19.30;99.90;;;;;;4965958;28;20506;-71
2022/06/04 07:59:58;;;;;;;9.05;6.50;;;19.50;99.90;;;;;;4983754;28;20035;-71
2022/06/04 08:02:25;;;;;;;8.50;6.80;;;19.70;99.90;;;;;;4985425;28;20041;-69
2022/06/04 08:04:53;;;;;;;12.23;6.68;;;19.80;99.90;;;;;;4987614;28;20357;-71
2022/06/04 08:07:20;;;;;;;7.95;5.35;;;20.00;99.90;;;;;;4985866;28;20507;-71
2022/06/04 08:09:48;;;;;;;7.85;5.40;;;20.10;99.90;;;;;;4984476;28;20026;-71
2022/06/04 08:12:14;;;;;;;6.75;5.20;;;20.20;99.90;;;;;;4970856;28;20479;-71
2022/06/04 08:14:41;;;;;;;6.32;5.57;;;20.20;99.90;;;;;;4986666;28;20057;-71
2022/06/04 08:17:06;;;;;;;8.18;5.13;;;20.20;99.90;;;;;;4985515;28;20384;-70
2022/06/04 08:19:35;;;;;;;7.15;5.75;;;20.10;99.90;;;;;;4987937;28;20057;-70
2022/06/04 08:22:01;;;;;;;8.90;6.35;;;20.10;99.90;;;;;;4984650;28;20113;-70
2022/06/04 08:24:27;;;;;;;7.38;5.68;;;20.20;99.90;;;;;;4987570;28;20054;-71
2022/06/04 08:26:58;;;;;;;9.35;6.13;;;20.40;99.90;;;;;;4990167;28;20369;-71
2022/06/04 08:29:25;;;;;;;11.57;6.63;;;20.50;99.90;;;;;;4987701;28;20023;-71
2022/06/04 08:31:51;;;;;;;10.57;6.18;;;20.50;99.90;;;;;;4984449;28;20026;-71
2022/06/04 08:34:17;;;;;;;10.20;6.38;;;20.50;99.90;;;;;;4995056;28;20556;-70
2022/06/04 08:36:43;;;;;;;10.20;6.15;;;20.50;99.90;;;;;;4988351;28;20104;-70
2022/06/04 08:39:09;;;;;;;8.05;5.38;;;20.60;99.90;;;;;;4975359;28;20126;-70
2022/06/04 08:42:10;;;;;;;6.47;5.38;;;20.60;99.90;;;;;;4988860;28;20495;-70
2022/06/04 08:44:42;;;;;;;27.17;21.95;;;20.70;99.90;;;;;;4986039;28;20056;-70
2022/06/04 08:47:14;;;;;;;10.80;5.57;;;20.80;99.90;;;;;;4992706;28;20030;-71
2022/06/04 08:49:48;;;;;;;5.30;4.38;;;21.00;99.90;;;;;;4989671;28;20078;-69
2022/06/04 08:52:46;;;;;;;6.35;3.72;;;21.10;99.90;;;;;;4971764;28;20027;-71
2022/06/04 08:58:28;;;;;;;3.97;3.38;;;21.40;99.90;;;;;;4967472;28;20109;-71
2022/06/04 09:00:57;;;;;;;6.63;3.67;;;21.50;99.90;;;;;;4988276;28;20026;-70
2022/06/04 09:03:52;;;;;;;4.72;3.20;;;21.70;99.90;;;;;;4988116;28;20395;-69
2022/06/04 09:06:24;;;;;;;4.53;2.90;;;21.70;99.90;;;;;;4963568;28;20042;-70
2022/06/04 09:09:17;;;;;;;3.92;3.10;;;21.70;99.90;;;;;;4990286;28;20030;-71
2022/06/04 09:11:52;;;;;;;6.53;2.28;;;21.80;99.90;;;;;;4986830;28;20039;-71
2022/06/04 09:14:37;;;;;;;3.08;2.28;;;22.00;99.90;;;;;;4988008;28;20611;-71
2022/06/04 09:17:17;;;;;;;2.80;2.35;;;22.10;99.90;;;;;;4985626;28;20018;-71
2022/06/04 09:19:48;;;;;;;5.20;2.25;;;22.00;99.90;;;;;;4971473;28;20026;-71
2022/06/04 09:22:19;;;;;;;4.50;2.28;;;22.00;99.90;;;;;;4970694;28;20050;-71
2022/06/04 09:24:45;;;;;;;6.40;2.65;;;22.00;99.90;;;;;;4971095;28;20087;-71
2022/06/04 09:27:28;;;;;;;3.13;2.40;;;21.80;99.90;;;;;;4968073;28;20054;-71
2022/06/04 09:30:15;;;;;;;4.67;2.37;;;21.80;99.90;;;;;;4988447;28;20384;-71
2022/06/04 09:32:49;;;;;;;3.53;2.28;;;21.90;99.90;;;;;;4988290;28;20427;-70
2022/06/04 09:35:23;;;;;;;2.90;2.60;;;21.90;99.90;;;;;;4986859;28;20049;-71
2022/06/04 09:37:50;;;;;;;4.63;2.38;;;21.90;99.90;;;;;;4984189;28;20053;-71
2022/06/04 09:40:21;;;;;;;4.40;2.28;;;22.00;99.90;;;;;;4986999;28;20030;-71
2022/06/04 09:42:47;;;;;;;4.22;2.47;;;22.10;99.90;;;;;;4974175;28;20034;-71
2022/06/04 09:45:27;;;;;;;3.30;2.30;;;22.40;99.90;;;;;;4921907;28;21201;-70
2022/06/04 09:47:56;;;;;;;4.05;2.63;;;22.60;99.90;;;;;;4962863;28;20089;-71
2022/06/04 09:50:32;;;;;;;5.40;2.78;;;22.60;99.90;;;;;;4989071;28;20038;-71
2022/06/04 09:53:19;;;;;;;4.07;2.47;;;22.80;99.90;;;;;;4984601;28;20062;-71
2022/06/04 09:55:56;;;;;;;3.25;2.20;;;23.00;99.90;;;;;;4982017;28;20034;-71
2022/06/04 09:58:29;;;;;;;3.78;2.50;;;23.20;99.90;;;;;;4986568;28;20387;-71
2022/06/04 10:00:59;;;;;;;4.32;2.45;;;23.20;99.90;;;;;;4968252;28;20038;-71
2022/06/04 10:03:25;;;;;;;8.10;3.15;;;23.40;99.90;;;;;;4985299;28;20044;-71
2022/06/04 10:06:13;;;;;;;4.50;2.67;;;23.50;99.90;;;;;;4985859;28;20064;-71
2022/06/04 10:11:34;;;;;;;3.70;3.10;;;23.70;99.90;;;;;;4987269;28;20522;-71
2022/06/04 10:14:00;;;;;;;10.32;4.55;;;23.80;99.90;;;;;;4987863;28;20049;-70
2022/06/04 10:16:40;;;;;;;8.18;3.05;;;24.00;99.90;;;;;;4979754;28;20038;-71
2022/06/04 10:19:12;;;;;;;4.70;2.80;;;24.00;99.90;;;;;;4981972;28;20356;-70
2022/06/04 10:21:41;;;;;;;6.90;3.40;;;24.10;99.90;;;;;;4979589;28;20055;-70
2022/06/04 10:24:24;;;;;;;4.28;2.95;;;24.20;99.90;;;;;;4981047;28;20041;-71
2022/06/04 10:27:22;;;;;;;3.65;3.35;;;24.40;99.90;;;;;;4973181;28;20480;-71
2022/06/04 10:30:28;;;;;;;3.03;2.72;;;24.50;99.90;;;;;;4983821;28;20081;-71
2022/06/04 10:33:22;;;;;;;3.55;3.00;;;24.50;99.90;;;;;;4913522;28;20509;-70
2022/06/04 10:36:02;;;;;;;3.97;3.13;;;24.60;99.90;;;;;;4986696;28;20484;-70
2022/06/04 10:38:37;;;;;;;6.30;3.65;;;24.70;99.90;;;;;;4978698;28;20019;-71
2022/06/04 10:41:08;;;;;;;5.63;3.85;;;24.70;99.90;;;;;;4981737;28;20023;-71
2022/06/04 10:43:46;;;;;;;6.28;3.55;;;24.80;99.90;;;;;;4985815;28;20386;-71
2022/06/04 10:46:23;;;;;;;8.30;4.28;;;24.70;99.90;;;;;;4983911;28;20484;-71
2022/06/04 10:49:04;;;;;;;8.45;3.70;;;24.70;99.90;;;;;;4969847;28;20034;-71
2022/06/04 10:52:11;;;;;;;7.88;3.65;;;24.80;99.90;;;;;;4985171;28;20044;-71
2022/06/04 10:54:44;;;;;;;5.43;4.20;;;24.90;99.90;;;;;;4974776;28;20121;-71
2022/06/04 10:57:25;;;;;;;4.47;3.65;;;25.00;99.90;;;;;;4986817;28;20057;-71
2022/06/04 11:00:14;;;;;;;5.25;3.58;;;25.00;99.90;;;;;;4984148;28;20038;-71
2022/06/04 11:03:12;;;;;;;6.38;4.07;;;24.90;99.90;;;;;;4969253;28;20121;-71
2022/06/04 11:05:47;;;;;;;7.72;5.68;;;24.80;99.90;;;;;;4984717;28;20039;-70
2022/06/04 11:08:25;;;;;;;6.85;4.18;;;24.80;99.90;;;;;;4983428;28;20023;-71
2022/06/04 11:11:09;;;;;;;5.40;4.35;;;24.90;99.90;;;;;;4984504;28;20034;-71
2022/06/04 11:13:48;;;;;;;5.32;4.30;;;24.80;99.90;;;;;;4986020;28;20039;-71
2022/06/04 11:16:27;;;;;;;7.07;4.10;;;24.70;99.90;;;;;;4981339;28;20030;-71
2022/06/04 11:18:56;;;;;;;6.05;4.30;;;24.80;99.90;;;;;;4985397;28;20026;-71
2022/06/04 11:21:27;;;;;;;6.50;4.65;;;25.00;99.90;;;;;;4985251;28;20023;-71
2022/06/04 11:24:06;;;;;;;7.47;4.53;;;25.00;99.90;;;;;;4988465;28;20039;-71
2022/06/04 11:26:38;;;;;;;7.25;4.75;;;25.10;99.90;;;;;;4982539;28;20030;-71
2022/06/04 11:29:05;;;;;;;4.70;4.07;;;24.80;99.90;;;;;;4980410;28;20027;-70
2022/06/04 11:31:55;;;;;;;8.98;5.00;;;24.70;99.90;;;;;;4979993;28;20154;-72
2022/06/04 11:34:26;;;;;;;7.00;5.43;;;24.60;99.90;;;;;;4988724;28;20082;-72
2022/06/04 11:37:01;;;;;;;5.95;5.35;;;24.60;99.90;;;;;;4985841;28;20104;-71
2022/06/04 11:39:26;;;;;;;6.60;4.80;;;24.70;99.90;;;;;;4968847;28;20030;-71
2022/06/04 11:42:07;;;;;;;7.30;4.80;;;24.60;99.90;;;;;;4986613;28;20022;-71
2022/06/04 11:44:46;;;;;;;7.80;5.22;;;24.60;99.90;;;;;;4985489;28;20067;-71
2022/06/04 11:47:33;;;;;;;7.68;5.60;;;24.60;99.90;;;;;;4983666;28;20394;-70
2022/06/04 11:49:59;;;;;;;6.63;5.28;;;24.90;99.90;;;;;;4985674;28;20069;-70
2022/06/04 11:52:29;;;;;;;7.63;5.45;;;25.00;99.90;;;;;;4991998;28;20610;-71
2022/06/04 11:55:25;;;;;;;7.82;5.35;;;24.90;99.90;;;;;;4986145;28;20117;-71
2022/06/04 11:57:56;;;;;;;9.60;6.60;;;24.90;99.90;;;;;;4985302;28;20094;-72
2022/06/04 12:00:36;;;;;;;7.93;6.60;;;24.60;99.90;;;;;;4990093;28;20045;-72
2022/06/04 12:03:25;;;;;;;7.22;6.22;;;24.40;99.90;;;;;;4970084;28;20069;-71
2022/06/04 12:06:23;;;;;;;8.98;6.45;;;24.30;99.90;;;;;;4983042;23;20126;-84
2022/06/04 12:09:01;;;;;;;8.02;6.25;;;24.30;99.90;;;;;;4952578;28;20023;-84
2022/06/04 12:11:45;;;;;;;8.57;6.15;;;24.20;99.90;;;;;;4961718;28;20023;-84
2022/06/04 12:14:33;;;;;;;7.72;6.90;;;24.10;99.90;;;;;;4989116;28;20035;-84
2022/06/04 12:17:17;;;;;;;7.85;5.93;;;24.20;99.90;;;;;;4976128;28;20047;-86
2022/06/04 12:25:45;;;;;;;7.65;6.32;;;24.40;99.90;;;;;;4956280;28;20093;-84
2022/06/04 12:28:22;;;;;;;6.95;6.25;;;24.40;99.90;;;;;;4959617;28;20085;-85
2022/06/04 12:30:48;;;;;;;9.15;6.13;;;24.50;99.90;;;;;;4951276;28;20027;-86
2022/06/04 12:33:28;;;;;;;9.73;7.30;;;24.60;99.90;;;;;;4957119;28;20027;-86
2022/06/04 12:36:09;;;;;;;8.45;5.97;;;24.70;99.90;;;;;;4955010;28;20099;-85
2022/06/04 12:38:45;;;;;;;10.05;7.45;;;24.80;99.90;;;;;;4950090;28;20034;-86
2022/06/04 12:41:19;;;;;;;7.70;6.88;;;24.80;99.90;;;;;;4950402;28;20030;-85
2022/06/04 12:43:59;;;;;;;7.53;6.32;;;24.90;99.90;;;;;;4956848;28;20019;-86
2022/06/04 12:46:27;;;;;;;7.47;6.60;;;24.90;99.90;;;;;;4955293;28;20030;-85
2022/06/04 12:49:04;;;;;;;8.43;6.85;;;25.00;99.90;;;;;;4951390;28;20023;-85
2022/06/04 12:51:38;;;;;;;8.02;6.47;;;24.80;99.90;;;;;;4957157;28;20102;-87
2022/06/04 12:54:25;;;;;;;9.10;7.72;;;24.40;99.90;;;;;;4968870;28;20023;-87
2022/06/04 12:56:58;;;;;;;8.90;7.05;;;24.20;99.90;;;;;;4954190;28;20032;-86
2022/06/04 12:59:46;;;;;;;8.77;7.85;;;23.90;99.90;;;;;;4939499;28;20037;-85
2022/06/04 13:02:33;;;;;;;8.57;6.80;;;23.80;99.90;;;;;;4953891;28;20521;-86
2022/06/04 13:05:14;;;;;;;10.25;7.88;;;23.70;99.90;;;;;;4967943;28;20038;-86
2022/06/04 13:08:05;;;;;;;9.95;8.50;;;23.60;99.90;;;;;;4969750;28;20142;-86
2022/06/04 13:10:45;;;;;;;8.90;8.00;;;23.50;99.90;;;;;;4955091;28;20031;-87
2022/06/04 13:13:38;;;;;;;8.23;7.40;;;23.40;99.90;;;;;;4950938;28;20031;-87
2022/06/04 13:16:17;;;;;;;12.60;8.10;;;23.40;99.90;;;;;;4958572;28;20066;-87
2022/06/04 13:18:47;;;;;;;8.05;7.07;;;23.30;99.90;;;;;;4950363;28;20524;-86
2022/06/04 13:21:18;;;;;;;8.05;7.22;;;23.40;99.90;;;;;;4961524;28;20451;-91
2022/06/04 13:23:50;;;;;;;8.48;6.57;;;23.40;99.90;;;;;;4957255;28;20062;-89
2022/06/04 13:26:34;;;;;;;9.15;6.80;;;23.40;99.90;;;;;;4958045;28;20086;-90
2022/06/04 13:29:02;;;;;;;9.50;7.55;;;23.50;99.90;;;;;;4972220;28;20031;-89
2022/06/04 13:31:33;;;;;;;8.35;7.22;;;23.50;99.90;;;;;;4957585;28;20059;-86